createdAt,value
2022-11-22T00:00:31.739Z,99703.63
2022-11-22T00:03:03.576Z,99708.88
2022-11-22T00:05:35.112Z,99696.47
2022-11-22T00:08:06.928Z,99686.97
2022-11-22T00:10:38.468Z,99683.09
2022-11-22T00:13:10.377Z,99690.56
2022-11-22T00:15:42.032Z,99675.56
2022-11-22T00:18:13.948Z,99681.25
2022-11-22T00:20:45.531Z,99671.47
2022-11-22T00:23:17.396Z,99676.53
2022-11-22T00:25:49.003Z,99667.22
2022-11-22T00:28:21.176Z,99663.47
2022-11-22T00:30:52.688Z,99659.06
2022-11-22T00:33:24.481Z,99458.88
2022-11-22T00:35:55.985Z,99648.63
2022-11-22T00:38:27.939Z,99650.09
2022-11-22T00:40:59.488Z,99657.94
2022-11-22T00:43:31.860Z,99655.00
2022-11-22T00:46:03.374Z,99663.16
2022-11-22T00:48:35.247Z,99664.78
2022-11-22T00:51:06.783Z,99654.81
2022-11-22T00:53:38.783Z,99651.06
2022-11-22T00:56:10.309Z,99651.88
2022-11-22T00:58:42.425Z,99654.00
2022-11-22T01:01:13.985Z,99649.94
2022-11-22T01:03:46.282Z,99642.22
2022-11-22T01:06:17.789Z,99647.78
2022-11-22T01:08:49.702Z,99637.84
2022-11-22T01:11:21.285Z,99638.69
2022-11-22T01:13:53.167Z,99638.00
2022-11-22T01:16:24.659Z,99638.31
2022-11-22T01:18:56.613Z,99645.81
2022-11-22T01:21:28.159Z,99636.03
2022-11-22T01:23:59.987Z,99642.06
2022-11-22T01:26:31.827Z,99637.00
2022-11-22T01:29:03.356Z,99645.63
2022-11-22T01:31:35.224Z,99647.59
2022-11-22T01:34:06.733Z,99637.31
2022-11-22T01:36:38.549Z,99648.41
2022-11-22T01:39:10.072Z,99645.13
2022-11-22T01:41:41.932Z,99640.09
2022-11-22T01:44:13.419Z,99649.53
2022-11-22T01:46:45.276Z,99645.47
2022-11-22T01:49:16.771Z,99647.09
2022-11-22T01:51:48.576Z,99650.66
2022-11-22T01:54:20.076Z,99653.28
2022-11-22T01:56:51.583Z,99644.47
2022-11-22T01:59:23.078Z,99642.69
2022-11-22T02:01:55.157Z,99641.06
2022-11-22T02:04:26.674Z,99643.50
2022-11-22T02:06:58.503Z,99628.50
2022-11-22T02:09:30.464Z,99637.47
2022-11-22T02:12:02.629Z,99641.06
2022-11-22T02:14:34.126Z,99635.84
2022-11-22T02:17:05.929Z,99632.75
2022-11-22T02:19:37.440Z,99627.53
2022-11-22T02:22:09.281Z,99626.88
2022-11-22T02:24:40.808Z,99626.22
2022-11-22T02:27:12.589Z,99621.00
2022-11-22T02:29:44.102Z,99624.59
2022-11-22T02:32:16.018Z,99619.22
2022-11-22T02:34:47.590Z,99615.78
2022-11-22T02:37:19.450Z,99603.09
2022-11-22T02:39:50.967Z,99592.16
2022-11-22T02:42:22.805Z,99600.47
2022-11-22T02:44:54.303Z,99601.44
2022-11-22T02:47:26.291Z,99601.13
2022-11-22T02:49:57.784Z,99599.81
2022-11-22T02:52:29.624Z,99591.34
2022-11-22T02:55:01.187Z,99596.25
2022-11-22T02:57:32.740Z,99597.06
2022-11-22T03:00:04.302Z,99593.63
2022-11-22T03:02:36.131Z,99586.13
2022-11-22T03:05:07.650Z,99588.91
2022-11-22T03:07:39.510Z,99585.63
2022-11-22T03:10:11.097Z,99578.78
2022-11-22T03:12:42.905Z,99576.66
2022-11-22T03:15:14.410Z,99571.47
2022-11-22T03:17:46.286Z,99571.47
2022-11-22T03:20:17.815Z,99580.25
2022-11-22T03:22:49.673Z,99581.72
2022-11-22T03:25:21.173Z,99583.53
2022-11-22T03:27:53.081Z,99586.94
2022-11-22T03:30:24.577Z,99587.75
2022-11-22T03:32:56.093Z,99588.41
2022-11-22T03:35:27.595Z,99589.72
2022-11-22T03:37:59.609Z,99574.38
2022-11-22T03:40:31.143Z,99566.56
2022-11-22T03:43:03.158Z,99564.13
2022-11-22T03:45:34.673Z,99565.09
2022-11-22T03:48:06.524Z,99568.84
2022-11-22T03:50:38.021Z,99564.94
2022-11-22T03:53:09.967Z,99563.31
2022-11-22T03:55:41.503Z,99560.38
2022-11-22T03:58:13.088Z,99565.41
2022-11-22T04:00:44.610Z,99573.25
2022-11-22T04:03:16.442Z,99560.38
2022-11-22T04:05:47.972Z,99546.34
2022-11-22T04:08:19.874Z,99555.81
2022-11-22T04:10:51.410Z,99559.38
2022-11-22T04:13:43.262Z,99555.16
2022-11-22T04:16:14.741Z,99555.97
2022-11-22T04:18:46.664Z,99553.03
2022-11-22T04:21:36.672Z,99562.81
2022-11-22T04:24:40.937Z,99559.22
2022-11-22T04:27:12.807Z,99565.59
2022-11-22T04:29:44.321Z,99561.34
2022-11-22T04:32:34.587Z,99566.41
2022-11-22T04:35:06.094Z,99566.56
2022-11-22T04:37:37.925Z,99556.44
2022-11-22T04:40:09.478Z,99557.91
2022-11-22T04:43:00.236Z,99562.69
2022-11-22T04:45:31.716Z,99559.09
2022-11-22T04:48:04.297Z,99558.75
2022-11-22T04:50:54.716Z,99550.28
2022-11-22T04:53:26.566Z,99551.09
2022-11-22T04:55:58.106Z,99542.44
2022-11-22T04:58:29.972Z,99545.84
2022-11-22T05:01:01.507Z,99546.69
2022-11-22T05:03:33.540Z,99551.91
2022-11-22T05:06:05.052Z,99557.13
2022-11-22T05:08:36.878Z,99545.19
2022-11-22T05:11:08.394Z,99544.88
2022-11-22T05:13:40.255Z,99540.78
2022-11-22T05:16:11.782Z,99534.09
2022-11-22T05:18:43.807Z,99533.59
2022-11-22T05:21:15.292Z,99538.19
2022-11-22T05:23:56.282Z,99542.41
2022-11-22T05:26:27.865Z,99534.91
2022-11-22T05:28:59.384Z,99540.75
2022-11-22T05:31:30.914Z,99535.69
2022-11-22T05:34:02.489Z,99533.09
2022-11-22T05:36:34.027Z,99520.03
2022-11-22T05:39:05.982Z,99527.03
2022-11-22T05:41:37.495Z,99531.00
2022-11-22T05:44:09.102Z,99528.69
2022-11-22T05:46:40.609Z,99531.16
2022-11-22T05:49:12.451Z,99527.41
2022-11-22T05:51:43.998Z,99526.41
2022-11-22T05:54:15.989Z,99533.75
2022-11-22T05:56:48.556Z,99537.34
2022-11-22T05:59:20.493Z,99543.38
2022-11-22T06:01:52.127Z,99548.59
2022-11-22T06:04:23.757Z,99549.91
2022-11-22T06:06:55.275Z,99553.78
2022-11-22T06:09:27.547Z,99564.91
2022-11-22T06:11:59.216Z,99561.00
2022-11-22T06:14:30.895Z,99563.91
2022-11-22T06:17:02.407Z,99558.34
2022-11-22T06:19:33.933Z,99568.47
2022-11-22T06:22:06.139Z,99566.84
2022-11-22T06:24:38.010Z,99559.47
2022-11-22T06:27:10.531Z,99558.63
2022-11-22T06:29:43.104Z,99576.78
2022-11-22T06:32:14.692Z,99567.44
2022-11-22T06:34:46.564Z,99578.72
2022-11-22T06:37:18.057Z,99579.38
2022-11-22T06:39:50.701Z,99578.06
2022-11-22T06:42:22.233Z,99578.72
2022-11-22T06:44:54.126Z,99576.78
2022-11-22T06:47:25.738Z,99578.53
2022-11-22T06:49:57.557Z,99586.38
2022-11-22T06:52:29.427Z,99590.31
2022-11-22T06:55:00.929Z,99593.91
2022-11-22T06:57:32.736Z,99601.59
2022-11-22T07:00:04.240Z,99588.50
2022-11-22T07:02:36.254Z,99588.03
2022-11-22T07:05:25.092Z,99590.25
2022-11-22T07:08:04.509Z,99591.25
2022-11-22T07:10:38.494Z,99594.69
2022-11-22T07:13:10.386Z,99600.69
2022-11-22T07:15:41.872Z,99607.38
2022-11-22T07:18:13.669Z,99610.28
2022-11-22T07:20:45.190Z,99609.16
2022-11-22T07:23:17.213Z,99605.22
2022-11-22T07:25:48.739Z,99613.06
2022-11-22T07:28:20.543Z,99616.97
2022-11-22T07:30:52.122Z,99615.53
2022-11-22T07:33:23.983Z,99624.78
2022-11-22T07:35:55.541Z,99622.47
2022-11-22T07:38:27.060Z,99601.53
2022-11-22T07:40:58.558Z,99615.28
2022-11-22T07:43:30.404Z,99609.91
2022-11-22T07:46:01.915Z,99597.72
2022-11-22T07:48:33.740Z,99594.81
2022-11-22T07:51:05.309Z,99595.91
2022-11-22T07:53:37.289Z,99588.53
2022-11-22T07:56:08.801Z,99580.59
2022-11-22T07:58:40.653Z,99572.19
2022-11-22T08:01:12.298Z,99574.63
2022-11-22T08:03:44.284Z,99569.56
2022-11-22T08:06:15.828Z,99567.13
2022-11-22T08:08:47.608Z,99566.09
2022-11-22T08:11:19.101Z,99557.72
2022-11-22T08:13:50.915Z,99559.47
2022-11-22T08:16:22.454Z,99565.69
2022-11-22T08:18:54.313Z,99555.56
2022-11-22T08:21:25.813Z,99557.25
2022-11-22T08:23:57.689Z,99558.34
2022-11-22T08:29:02.405Z,99558.34
2022-11-22T08:31:33.954Z,99559.88
2022-11-22T08:34:05.823Z,99556.38
2022-11-22T08:36:37.311Z,99556.38
2022-11-22T08:39:09.196Z,99546.81
2022-11-22T08:41:40.767Z,99564.94
2022-11-22T08:44:12.624Z,99564.78
2022-11-22T08:46:44.105Z,99577.38
2022-11-22T08:49:15.918Z,99582.03
2022-11-22T08:51:47.462Z,99581.22
2022-11-22T08:54:19.269Z,99579.53
2022-11-22T08:56:50.783Z,99581.16
2022-11-22T08:59:22.681Z,99592.78
2022-11-22T09:01:54.349Z,99602.31
2022-11-22T09:04:26.607Z,99609.59
2022-11-22T09:09:52.299Z,99623.22
2022-11-22T09:12:23.815Z,99625.50
2022-11-22T09:14:55.668Z,99620.88
2022-11-22T09:17:27.166Z,99621.56
2022-11-22T09:19:58.993Z,99618.84
2022-11-22T09:22:30.509Z,99619.13
2022-11-22T09:25:02.328Z,99622.78
2022-11-22T09:27:33.829Z,99614.88
2022-11-22T09:30:05.711Z,99613.75
2022-11-22T09:32:37.241Z,99608.50
2022-11-22T09:35:09.098Z,99609.38
2022-11-22T09:37:40.850Z,99616.34
2022-11-22T09:40:12.876Z,99614.25
2022-11-22T09:42:44.419Z,99618.00
2022-11-22T09:45:16.284Z,99630.19
2022-11-22T09:47:47.772Z,99622.78
2022-11-22T09:50:19.597Z,99622.25
2022-11-22T09:52:51.117Z,99624.22
2022-11-22T09:55:24.484Z,99627.41
2022-11-22T09:57:56.065Z,99624.50
2022-11-22T10:00:27.899Z,99629.38
2022-11-22T10:03:00.686Z,99632.28
2022-11-22T10:05:32.845Z,99638.34
2022-11-22T10:08:04.705Z,99619.53
2022-11-22T10:10:36.249Z,99630.47
2022-11-22T10:13:08.089Z,99628.59
2022-11-22T10:15:39.609Z,99636.81
2022-11-22T10:18:11.891Z,99631.66
2022-11-22T10:20:48.655Z,99621.34
2022-11-22T10:23:20.974Z,99623.97
2022-11-22T10:25:52.483Z,99624.97
2022-11-22T10:28:24.820Z,99622.53
2022-11-22T10:30:56.381Z,99619.25
2022-11-22T10:33:28.263Z,99629.03
2022-11-22T10:35:59.778Z,99630.00
2022-11-22T10:38:31.619Z,99623.63
2022-11-22T10:41:03.530Z,99631.31
2022-11-22T10:43:35.364Z,99630.09
2022-11-22T10:46:06.891Z,99630.81
2022-11-22T10:48:38.439Z,99613.47
2022-11-22T10:51:09.952Z,99609.97
2022-11-22T10:53:41.766Z,99606.53
2022-11-22T10:56:13.277Z,99605.25
2022-11-22T10:58:45.241Z,99625.84
2022-11-22T11:01:16.821Z,99624.41
2022-11-22T11:03:48.682Z,99623.66
2022-11-22T11:06:26.561Z,99628.41
2022-11-22T11:11:52.693Z,99629.72
2022-11-22T11:14:24.654Z,99620.53
2022-11-22T11:16:56.188Z,99615.56
2022-11-22T11:19:28.277Z,99603.22
2022-11-22T11:21:59.875Z,99601.28
2022-11-22T11:24:32.058Z,99600.53
2022-11-22T11:27:03.704Z,99593.66
2022-11-22T11:29:37.866Z,99599.56
2022-11-22T11:32:09.740Z,99589.19
2022-11-22T11:34:41.510Z,99598.75
2022-11-22T11:37:13.075Z,99585.47
2022-11-22T11:39:45.060Z,99588.09
2022-11-22T11:42:16.554Z,99586.00
2022-11-22T11:44:48.529Z,99591.25
2022-11-22T11:47:20.823Z,99593.13
2022-11-22T11:49:52.903Z,99599.88
2022-11-22T11:52:25.720Z,99605.41
2022-11-22T11:54:57.714Z,99610.28
2022-11-22T11:57:29.265Z,99601.44
2022-11-22T12:00:01.291Z,99597.75
2022-11-22T12:02:36.035Z,99607.34
2022-11-22T12:05:08.205Z,99596.28
2022-11-22T12:07:39.783Z,99601.47
2022-11-22T12:10:11.660Z,99596.75
2022-11-22T12:12:43.158Z,99594.19
2022-11-22T12:15:15.345Z,99598.56
2022-11-22T12:17:47.203Z,99601.06
2022-11-22T12:20:19.665Z,99596.63
2022-11-22T12:22:51.196Z,99593.91
2022-11-22T12:25:38.613Z,99598.31
2022-11-22T12:28:10.250Z,99590.63
2022-11-22T12:30:42.111Z,99581.28
2022-11-22T12:33:13.607Z,99566.81
2022-11-22T12:35:45.133Z,99568.06
2022-11-22T12:38:16.688Z,99576.91
2022-11-22T12:40:48.567Z,99575.59
2022-11-22T12:43:20.079Z,99590.09
2022-11-22T12:45:52.016Z,99587.22
2022-11-22T12:48:24.425Z,99589.63
2022-11-22T12:50:56.434Z,99592.28
2022-11-22T12:53:28.379Z,99582.53
2022-11-22T12:56:00.233Z,99587.06
2022-11-22T12:58:31.730Z,99588.81
2022-11-22T13:01:03.670Z,99585.38
2022-11-22T13:03:35.188Z,99575.72
2022-11-22T13:06:07.108Z,99589.00
2022-11-22T13:08:38.743Z,99580.09
2022-11-22T13:11:10.574Z,99573.47
2022-11-22T13:13:42.073Z,99574.47
2022-11-22T13:16:14.650Z,99560.19
2022-11-22T13:18:46.234Z,99562.25
2022-11-22T13:21:18.124Z,99553.56
2022-11-22T13:23:50.507Z,99554.53
2022-11-22T13:26:22.022Z,99560.19
2022-11-22T13:28:53.805Z,99564.25
2022-11-22T13:31:25.306Z,99567.84
2022-11-22T13:33:57.310Z,99565.66
2022-11-22T13:36:28.815Z,99576.75
2022-11-22T13:39:00.644Z,99577.53
2022-11-22T13:41:32.138Z,99572.91
2022-11-22T13:44:03.939Z,99573.53
2022-11-22T13:46:35.457Z,99570.72
2022-11-22T13:49:07.346Z,99568.91
2022-11-22T13:51:38.877Z,99565.84
2022-11-22T13:54:10.841Z,99567.09
2022-11-22T13:56:42.422Z,99568.00
2022-11-22T13:59:14.310Z,99424.84
2022-11-22T14:01:45.957Z,99559.72
2022-11-22T14:04:19.837Z,99558.53
2022-11-22T14:06:51.333Z,99557.72
2022-11-22T14:09:23.328Z,99566.84
2022-11-22T14:11:54.882Z,99574.72
2022-11-22T14:14:26.716Z,99575.53
2022-11-22T14:16:58.214Z,99574.34
2022-11-22T14:19:30.104Z,99578.38
2022-11-22T14:22:01.610Z,99577.50
2022-11-22T14:24:33.608Z,99569.44
2022-11-22T14:27:05.252Z,99570.81
2022-11-22T14:29:37.101Z,99563.38
2022-11-22T14:32:08.623Z,99571.69
2022-11-22T14:34:40.563Z,99565.59
2022-11-22T14:37:12.139Z,99576.69
2022-11-22T14:39:44.146Z,99579.13
2022-11-22T14:42:15.658Z,99573.50
2022-11-22T14:44:47.477Z,99588.00
2022-11-22T14:47:18.991Z,99580.31
2022-11-22T14:49:50.907Z,99578.69
2022-11-22T14:52:22.471Z,99581.09
2022-11-22T14:54:54.530Z,99581.69
2022-11-22T14:57:26.135Z,99586.53
2022-11-22T14:59:58.036Z,99581.28
2022-11-22T15:02:29.602Z,99575.44
2022-11-22T15:09:19.191Z,99578.69
2022-11-22T15:09:23.874Z,99577.88
2022-11-22T15:10:46.607Z,99581.28
2022-11-22T15:13:18.173Z,99577.22
2022-11-22T15:58:52.389Z,99619.34
2022-11-22T16:01:24.010Z,99616.91
2022-11-22T16:03:55.618Z,99618.28
2022-11-22T16:06:27.492Z,99619.28
2022-11-22T16:08:58.994Z,99616.72
2022-11-22T16:11:30.643Z,99609.03
2022-11-22T16:14:02.132Z,99602.75
2022-11-22T16:16:34.074Z,99605.41
2022-11-22T16:19:05.566Z,99603.16
2022-11-22T16:21:37.398Z,99597.31
2022-11-22T16:24:11.529Z,99593.25
2022-11-22T16:26:43.351Z,99602.53
2022-11-22T16:29:14.866Z,99611.03
2022-11-22T16:31:46.781Z,99421.59
2022-11-22T16:34:18.303Z,99618.72
2022-11-22T16:36:50.195Z,99623.78
2022-11-22T16:39:21.677Z,99628.59
2022-11-22T16:41:53.193Z,99632.78
2022-11-22T16:44:24.730Z,99638.66
2022-11-22T16:46:56.582Z,99646.16
2022-11-22T16:49:28.162Z,99652.41
2022-11-22T16:51:59.812Z,99651.03
2022-11-22T16:54:31.306Z,99653.03
2022-11-22T16:57:03.653Z,99654.22
2022-11-22T16:59:35.145Z,99650.78
2022-11-22T17:02:06.767Z,99652.78
2022-11-22T17:04:41.095Z,99651.41
2022-11-22T17:07:13.138Z,99655.03
2022-11-22T17:09:44.780Z,99652.84
2022-11-22T17:12:16.380Z,99658.47
2022-11-22T17:14:48.515Z,99658.69
2022-11-22T17:17:20.333Z,99656.41
2022-11-22T17:19:53.732Z,99666.94
2022-11-22T17:22:25.950Z,99665.38
2022-11-22T17:24:57.650Z,99669.00
2022-11-22T17:27:29.130Z,99655.41
2022-11-22T17:30:00.925Z,99662.31
2022-11-22T17:32:32.412Z,99665.56
2022-11-22T17:35:04.485Z,99661.50
2022-11-22T17:37:35.980Z,99672.69
2022-11-22T17:40:08.022Z,99671.19
2022-11-22T17:42:41.285Z,99674.06
2022-11-22T17:45:12.972Z,99683.19
2022-11-22T17:47:44.494Z,99681.38
2022-11-22T17:50:16.076Z,99684.47
2022-11-22T17:52:47.600Z,99686.47
2022-11-22T17:55:19.464Z,99677.13
2022-11-22T17:57:55.703Z,99679.13
2022-11-22T18:00:30.268Z,99682.13
2022-11-22T18:03:07.885Z,99690.25
2022-11-22T18:05:40.030Z,99700.06
2022-11-22T18:08:11.520Z,99702.94
2022-11-22T18:10:43.321Z,99704.94
2022-11-22T18:13:21.355Z,99707.84
2022-11-22T18:15:57.370Z,99712.75
2022-11-22T18:21:27.109Z,99706.75
2022-11-22T18:23:58.702Z,99704.19
2022-11-22T18:26:39.275Z,99710.84
2022-11-22T18:29:41.668Z,99704.56
2022-11-22T18:32:03.875Z,99708.56
2022-11-22T18:34:35.461Z,99717.09
2022-11-22T18:37:07.358Z,99712.63
2022-11-22T18:39:39.883Z,99720.09
2022-11-22T18:42:11.871Z,99721.25
2022-11-22T18:44:43.415Z,99721.91
2022-11-22T18:47:15.364Z,99721.97
2022-11-22T18:49:48.069Z,99719.81
2022-11-22T18:52:19.613Z,99720.44
2022-11-22T18:54:51.550Z,99712.94
2022-11-22T18:57:23.546Z,99713.31
2022-11-22T18:59:55.137Z,99713.69
2022-11-22T19:02:27.731Z,99714.94
2022-11-22T19:04:59.423Z,99713.75
2022-11-22T19:07:31.332Z,99703.25
2022-11-22T19:10:02.960Z,99727.31
2022-11-22T19:12:34.473Z,99721.72
2022-11-22T19:15:06.339Z,99716.47
2022-11-22T19:17:38.134Z,99725.88
2022-11-22T19:20:16.767Z,99732.22
2022-11-22T19:23:01.438Z,99734.84
2022-11-22T19:25:33.306Z,99746.78
2022-11-22T19:28:05.424Z,99753.28
2022-11-22T19:30:41.242Z,99759.03
2022-11-22T19:33:16.703Z,99760.38
2022-11-22T19:35:48.523Z,99206.22
2022-11-22T19:38:20.017Z,99762.19
2022-11-22T19:40:51.873Z,99767.25
2022-11-22T19:43:23.422Z,99754.47
2022-11-22T19:45:55.269Z,99760.38
2022-11-22T19:48:26.756Z,99757.75
2022-11-22T19:50:58.600Z,99753.78
2022-11-22T19:53:30.100Z,99751.84
2022-11-22T19:56:01.904Z,99759.56
2022-11-22T19:58:33.492Z,99755.66
2022-11-22T20:01:05.857Z,99756.47
2022-11-22T20:03:37.383Z,99754.41
2022-11-22T20:06:09.263Z,99751.59
2022-11-22T20:08:40.834Z,99746.34
2022-11-22T20:11:12.339Z,99756.41
2022-11-22T20:13:43.958Z,99753.59
2022-11-22T20:16:15.489Z,99753.59
2022-11-22T20:18:47.045Z,99762.28
2022-11-22T20:21:22.031Z,99751.78
2022-11-22T20:23:53.868Z,99752.03
2022-11-22T20:26:25.797Z,99750.78
2022-11-22T20:28:57.305Z,99751.78
2022-11-22T20:31:29.408Z,99752.41
2022-11-22T20:34:00.924Z,99755.66
2022-11-22T20:36:32.742Z,99758.03
2022-11-22T20:39:09.772Z,99759.09
2022-11-22T20:41:42.423Z,99747.53
2022-11-22T20:44:13.981Z,99747.53
2022-11-22T20:46:45.939Z,99747.97
2022-11-22T20:49:17.439Z,99750.16
2022-11-22T20:51:49.430Z,99755.59
2022-11-22T20:54:20.954Z,99753.59
2022-11-22T20:56:52.801Z,99758.66
2022-11-22T20:59:24.575Z,99768.16
2022-11-22T21:01:56.667Z,99765.72
2022-11-22T21:04:28.432Z,99756.09
2022-11-22T21:07:00.524Z,99758.16
2022-11-22T21:09:32.291Z,99758.16
2022-11-22T21:12:04.118Z,99756.53
2022-11-22T21:14:35.612Z,99755.09
2022-11-22T21:17:29.941Z,99762.53
2022-11-22T21:19:58.742Z,99767.97
2022-11-22T21:22:31.993Z,99765.16
2022-11-22T21:25:03.758Z,99757.72
2022-11-22T21:27:35.557Z,99755.28
2022-11-22T21:30:07.078Z,99755.28
2022-11-22T21:32:38.808Z,99748.16
2022-11-22T21:35:10.366Z,99754.28
2022-11-22T21:37:42.002Z,99756.28
2022-11-22T21:40:13.953Z,99753.84
2022-11-22T21:42:45.846Z,99622.72
2022-11-22T21:45:17.590Z,99760.22
2022-11-22T21:47:50.022Z,99763.56
2022-11-22T21:50:21.583Z,99764.75
2022-11-22T21:52:53.500Z,99762.41
2022-11-22T21:55:25.008Z,99757.50
2022-11-22T21:57:56.817Z,99769.19
2022-11-22T22:00:28.329Z,99768.72
2022-11-22T22:03:00.135Z,99768.09
2022-11-22T22:05:31.663Z,99763.41
2022-11-22T22:08:03.533Z,99766.56
2022-11-22T22:10:35.087Z,99769.19
2022-11-22T22:13:06.924Z,99769.72
2022-11-22T22:15:39.027Z,99764.03
2022-11-22T22:18:10.840Z,99764.41
2022-11-22T22:20:42.395Z,99759.50
2022-11-22T22:23:15.983Z,99769.19
2022-11-22T22:25:47.473Z,99768.25
2022-11-22T22:28:19.430Z,99777.13
2022-11-22T22:30:50.936Z,99770.25
2022-11-22T22:33:22.795Z,99778.66
2022-11-22T22:35:54.311Z,99776.19
2022-11-22T22:38:25.871Z,99773.56
2022-11-22T22:40:57.382Z,99775.56
2022-11-22T22:43:29.386Z,99772.13
2022-11-22T22:46:05.930Z,99770.50
2022-11-22T22:48:38.160Z,99771.03
2022-11-22T22:51:09.706Z,99782.53
2022-11-22T22:53:41.569Z,99645.63
2022-11-22T22:56:13.630Z,99780.25
2022-11-22T22:58:45.496Z,99772.13
2022-11-22T23:01:17.818Z,99776.72
2022-11-22T23:03:49.383Z,99782.78
2022-11-22T23:06:21.203Z,99781.97
2022-11-22T23:08:52.695Z,99774.28
2022-11-22T23:11:44.673Z,99768.56
2022-11-22T23:14:16.178Z,99770.69
2022-11-22T23:16:47.991Z,99776.94
2022-11-22T23:19:19.536Z,99771.88
2022-11-22T23:21:51.486Z,99778.75
2022-11-22T23:24:22.994Z,99783.34
2022-11-22T23:26:54.829Z,99777.94
2022-11-22T23:29:26.328Z,99772.06
2022-11-22T23:31:58.343Z,99767.16
2022-11-22T23:34:30.808Z,99761.28
2022-11-22T23:37:02.692Z,99764.25
2022-11-22T23:39:34.272Z,99777.19
2022-11-22T23:42:06.284Z,99782.59
2022-11-22T23:44:37.796Z,99780.44
2022-11-22T23:47:09.617Z,99776.38
2022-11-22T23:49:41.136Z,99772.75
2022-11-22T23:52:13.035Z,99780.44
2022-11-22T23:54:44.644Z,99775.84
2022-11-22T23:57:16.479Z,99775.19
2022-11-22T23:59:47.966Z,99767.16
